createdAt,value
2023-03-21T00:00:58.443Z,7.50
2023-03-21T00:04:00.419Z,7.50
2023-03-21T00:07:02.876Z,7.40
2023-03-21T00:10:15.489Z,7.30
2023-03-21T00:13:20.115Z,7.30
2023-03-21T00:16:28.786Z,7.30
2023-03-21T00:19:33.013Z,7.30
2023-03-21T00:22:35.964Z,7.20
2023-03-21T00:25:38.004Z,7.20
2023-03-21T00:28:41.952Z,7.20
2023-03-21T00:31:43.916Z,7.20
2023-03-21T00:34:59.673Z,7.20
2023-03-21T00:38:06.938Z,7.20
2023-03-21T00:41:23.430Z,7.20
2023-03-21T00:44:28.190Z,7.20
2023-03-21T00:47:30.104Z,7.20
2023-03-21T00:50:32.559Z,7.30
2023-03-21T00:53:34.453Z,7.20
2023-03-21T00:56:36.615Z,7.30
2023-03-21T00:59:38.404Z,7.30
2023-03-21T01:03:02.595Z,7.30
2023-03-21T01:06:07.783Z,7.30
2023-03-21T01:09:16.565Z,7.30
2023-03-21T01:12:19.104Z,7.30
2023-03-21T01:15:21.754Z,7.30
2023-03-21T01:18:27.386Z,7.30
2023-03-21T01:21:29.609Z,7.30
2023-03-21T01:24:32.430Z,7.30
2023-03-21T01:27:35.676Z,7.30
2023-03-21T01:30:41.980Z,7.30
2023-03-21T01:33:44.722Z,7.30
2023-03-21T01:36:46.564Z,7.20
2023-03-21T01:39:48.595Z,7.30
2023-03-21T01:42:51.644Z,7.20
2023-03-21T01:46:37.274Z,7.20
2023-03-21T01:49:49.952Z,7.30
2023-03-21T01:52:51.990Z,7.30
2023-03-21T01:55:54.072Z,7.30
2023-03-21T01:59:04.446Z,7.20
2023-03-21T02:02:10.490Z,7.30
2023-03-21T02:05:13.314Z,7.30
2023-03-21T02:08:15.949Z,7.30
2023-03-21T02:11:19.226Z,7.30
2023-03-21T02:14:29.092Z,7.30
2023-03-21T02:17:58.187Z,7.30
2023-03-21T02:21:28.713Z,7.20
2023-03-21T02:24:30.545Z,7.20
2023-03-21T02:27:47.863Z,7.30
2023-03-21T02:31:08.576Z,7.30
2023-03-21T02:34:46.407Z,7.20
2023-03-21T02:37:58.566Z,7.20
2023-03-21T02:41:18.177Z,7.20
2023-03-21T02:44:46.056Z,7.20
2023-03-21T02:47:53.148Z,7.20
2023-03-21T02:50:59.125Z,7.30
2023-03-21T02:54:47.220Z,7.20
2023-03-21T02:57:41.890Z,7.10
2023-03-21T03:00:46.143Z,7.10
2023-03-21T03:03:48.000Z,7.00
2023-03-21T03:07:10.527Z,7.00
2023-03-21T03:10:27.020Z,7.00
2023-03-21T03:13:38.203Z,7.00
2023-03-21T03:17:07.573Z,7.00
2023-03-21T03:20:16.973Z,7.00
2023-03-21T03:23:31.083Z,7.00
2023-03-21T03:26:45.901Z,6.90
2023-03-21T03:29:48.927Z,7.00
2023-03-21T03:32:57.776Z,6.90
2023-03-21T03:36:05.509Z,6.90
2023-03-21T03:39:13.995Z,6.90
2023-03-21T03:42:37.009Z,6.90
2023-03-21T03:45:47.766Z,6.90
2023-03-21T03:48:55.008Z,6.90
2023-03-21T03:52:08.557Z,6.90
2023-03-21T03:55:14.053Z,6.90
2023-03-21T03:58:23.823Z,6.90
2023-03-21T04:01:27.918Z,6.90
2023-03-21T04:04:31.763Z,6.90
2023-03-21T04:07:34.008Z,6.90
2023-03-21T04:10:36.900Z,6.80
2023-03-21T04:13:39.140Z,6.80
2023-03-21T04:16:41.411Z,6.80
2023-03-21T04:19:43.469Z,6.80
2023-03-21T04:22:45.455Z,6.80
2023-03-21T04:25:56.276Z,6.80
2023-03-21T04:29:03.320Z,6.80
2023-03-21T04:32:06.335Z,6.80
2023-03-21T04:35:09.971Z,6.80
2023-03-21T04:38:11.973Z,6.80
2023-03-21T04:41:14.120Z,6.70
2023-03-21T04:44:17.299Z,6.70
2023-03-21T04:47:20.704Z,6.70
2023-03-21T04:50:22.525Z,6.70
2023-03-21T04:53:24.611Z,6.70
2023-03-21T04:56:34.308Z,6.70
2023-03-21T04:59:36.780Z,6.70
2023-03-21T05:02:39.056Z,6.80
2023-03-21T05:05:40.866Z,6.70
2023-03-21T05:08:43.075Z,6.60
2023-03-21T05:11:45.000Z,6.60
2023-03-21T05:14:47.236Z,6.70
2023-03-21T05:17:49.238Z,6.70
2023-03-21T05:20:55.758Z,6.60
2023-03-21T05:23:58.469Z,6.60
2023-03-21T05:27:03.952Z,6.60
2023-03-21T05:30:07.547Z,6.60
2023-03-21T05:33:09.479Z,6.60
2023-03-21T05:36:11.983Z,6.60
2023-03-21T05:39:13.725Z,6.70
2023-03-21T05:42:16.602Z,6.60
2023-03-21T05:45:18.467Z,6.70
2023-03-21T05:48:20.299Z,6.70
2023-03-21T05:51:22.411Z,6.70
2023-03-21T05:54:24.451Z,6.60
2023-03-21T05:57:28.826Z,6.70
2023-03-21T06:00:30.844Z,6.70
2023-03-21T06:03:32.624Z,6.80
2023-03-21T06:06:34.412Z,6.80
2023-03-21T06:09:36.242Z,6.80
2023-03-21T06:12:38.010Z,6.80
2023-03-21T06:15:40.405Z,6.80
2023-03-21T06:18:42.297Z,6.90
2023-03-21T06:21:44.151Z,6.90
2023-03-21T06:24:45.995Z,7.00
2023-03-21T06:27:47.768Z,7.00
2023-03-21T06:30:49.586Z,7.10
2023-03-21T06:33:51.746Z,7.10
2023-03-21T06:36:54.799Z,7.10
2023-03-21T06:39:56.692Z,7.20
2023-03-21T06:42:58.483Z,7.30
2023-03-21T06:46:00.967Z,7.30
2023-03-21T06:49:03.006Z,7.40
2023-03-21T06:52:04.890Z,7.50
2023-03-21T06:55:07.021Z,7.50
2023-03-21T06:58:08.778Z,7.60
2023-03-21T07:01:10.692Z,7.70
2023-03-21T07:04:12.641Z,7.70
2023-03-21T07:07:15.730Z,7.70
2023-03-21T07:10:18.029Z,7.80
2023-03-21T07:13:19.735Z,7.80
2023-03-21T07:16:22.188Z,7.90
2023-03-21T07:19:23.914Z,8.00
2023-03-21T07:22:25.902Z,8.10
2023-03-21T07:25:28.196Z,8.20
2023-03-21T07:28:31.367Z,8.20
2023-03-21T07:31:33.213Z,8.30
2023-03-21T07:34:34.956Z,8.40
2023-03-21T07:37:38.098Z,8.40
2023-03-21T07:40:40.089Z,8.50
2023-03-21T07:43:41.948Z,8.50
2023-03-21T07:46:43.692Z,8.60
2023-03-21T07:49:45.432Z,8.60
2023-03-21T07:52:48.258Z,8.70
2023-03-21T07:55:51.492Z,8.80
2023-03-21T07:58:53.195Z,8.80
2023-03-21T08:01:55.044Z,9.10
2023-03-21T08:04:57.302Z,9.00
2023-03-21T08:07:59.459Z,9.10
2023-03-21T08:11:01.172Z,9.30
2023-03-21T08:14:02.919Z,9.40
2023-03-21T08:17:06.139Z,9.50
2023-03-21T08:20:10.217Z,9.70
2023-03-21T08:23:12.147Z,9.80
2023-03-21T08:26:18.108Z,9.90
2023-03-21T08:29:21.499Z,10.00
2023-03-21T08:32:29.294Z,10.10
2023-03-21T08:35:31.641Z,10.20
2023-03-21T08:38:34.664Z,10.30
2023-03-21T08:41:37.855Z,10.40
2023-03-21T08:44:39.799Z,10.50
2023-03-21T08:47:41.886Z,10.60
2023-03-21T08:50:43.786Z,10.70
2023-03-21T08:53:45.488Z,10.70
2023-03-21T08:56:47.801Z,10.90
2023-03-21T08:59:49.481Z,10.90
2023-03-21T09:02:52.482Z,11.00
2023-03-21T09:05:54.655Z,11.10
2023-03-21T09:08:56.871Z,11.20
2023-03-21T09:11:59.025Z,11.30
2023-03-21T09:15:02.712Z,11.30
2023-03-21T09:18:13.215Z,11.40
2023-03-21T09:21:18.270Z,11.40
2023-03-21T09:24:20.791Z,11.60
2023-03-21T09:27:28.212Z,11.60
2023-03-21T09:30:30.226Z,11.80
2023-03-21T09:33:33.031Z,12.00
2023-03-21T09:36:35.375Z,12.20
2023-03-21T09:39:37.621Z,12.40
2023-03-21T09:43:50.658Z,12.60
2023-03-21T09:47:06.103Z,12.90
2023-03-21T09:50:20.390Z,13.20
2023-03-21T09:53:50.158Z,13.40
2023-03-21T09:56:56.366Z,14.00
2023-03-21T10:00:07.933Z,14.20
2023-03-21T10:03:23.841Z,14.40
2023-03-21T10:06:30.372Z,14.60
2023-03-21T10:09:33.271Z,14.80
2023-03-21T10:12:35.360Z,14.90
2023-03-21T10:15:37.511Z,15.00
2023-03-21T10:18:42.795Z,15.20
2023-03-21T10:22:04.102Z,15.20
2023-03-21T10:25:08.094Z,15.30
2023-03-21T10:28:16.430Z,15.40
2023-03-21T10:31:25.403Z,15.40
2023-03-21T10:34:37.990Z,15.40
2023-03-21T10:37:39.920Z,15.40
2023-03-21T10:40:41.713Z,15.30
2023-03-21T10:43:45.796Z,15.40
2023-03-21T10:46:56.941Z,15.40
2023-03-21T10:50:12.918Z,15.30
2023-03-21T10:53:35.040Z,15.20
2023-03-21T10:56:40.937Z,15.00
2023-03-21T10:59:55.605Z,14.90
2023-03-21T11:02:58.350Z,14.80
2023-03-21T11:06:27.231Z,14.80
2023-03-21T11:09:59.583Z,14.70
2023-03-21T11:13:19.701Z,14.70
2023-03-21T11:16:39.822Z,14.70
2023-03-21T11:19:52.383Z,14.70
2023-03-21T11:22:56.092Z,14.60
2023-03-21T11:26:00.793Z,14.60
2023-03-21T11:29:29.271Z,14.60
2023-03-21T11:32:36.017Z,14.50
2023-03-21T11:35:40.001Z,14.60
2023-03-21T11:38:41.914Z,14.60
2023-03-21T11:41:51.555Z,14.70
2023-03-21T11:45:03.308Z,14.80
2023-03-21T11:48:14.500Z,14.80
2023-03-21T11:51:44.847Z,14.80
2023-03-21T11:55:05.714Z,14.80
2023-03-21T11:58:30.826Z,14.90
2023-03-21T12:01:42.012Z,14.90
2023-03-21T12:04:54.373Z,15.00
2023-03-21T12:08:08.086Z,15.00
2023-03-21T12:11:32.998Z,15.10
2023-03-21T12:15:03.904Z,15.20
2023-03-21T12:18:37.258Z,15.20
2023-03-21T12:21:59.536Z,15.30
2023-03-21T12:25:27.762Z,15.40
2023-03-21T12:28:47.207Z,15.40
2023-03-21T12:32:09.029Z,15.50
2023-03-21T12:35:31.072Z,15.60
2023-03-21T12:38:47.843Z,15.70
2023-03-21T12:41:49.739Z,15.70
2023-03-21T12:44:59.580Z,15.80
2023-03-21T12:48:30.196Z,15.80
2023-03-21T12:51:36.711Z,15.80
2023-03-21T12:55:02.969Z,15.90
2023-03-21T12:58:10.129Z,15.80
2023-03-21T13:01:15.773Z,15.90
2023-03-21T13:04:26.863Z,15.90
2023-03-21T13:07:33.662Z,15.90
2023-03-21T13:10:36.297Z,15.90
2023-03-21T13:14:17.194Z,15.90
2023-03-21T13:17:37.415Z,15.90
2023-03-21T13:20:49.639Z,16.00
2023-03-21T13:24:15.408Z,16.00
2023-03-21T13:27:29.492Z,16.10
2023-03-21T13:30:32.545Z,16.10
2023-03-21T13:33:35.022Z,16.20
2023-03-21T13:36:39.479Z,16.20
2023-03-21T13:39:46.044Z,16.30
2023-03-21T13:42:54.120Z,16.30
2023-03-21T13:45:56.010Z,16.30
2023-03-21T13:49:10.148Z,16.30
2023-03-21T13:52:12.167Z,16.40
2023-03-21T13:55:20.403Z,16.30
2023-03-21T13:58:39.039Z,16.10
2023-03-21T14:01:42.568Z,16.30
2023-03-21T14:05:03.699Z,16.30
2023-03-21T14:08:24.781Z,16.30
2023-03-21T14:11:32.429Z,16.30
2023-03-21T14:14:38.852Z,16.30
2023-03-21T14:18:16.070Z,16.40
2023-03-21T14:21:30.578Z,16.30
2023-03-21T14:24:32.412Z,16.30
2023-03-21T14:27:37.742Z,16.30
2023-03-21T14:30:41.524Z,16.30
2023-03-21T14:33:51.766Z,16.30
2023-03-21T14:36:58.444Z,16.30
2023-03-21T14:40:07.836Z,16.30
2023-03-21T14:43:11.921Z,16.30
2023-03-21T14:46:13.698Z,16.20
2023-03-21T14:49:26.870Z,16.20
2023-03-21T14:52:33.419Z,16.20
2023-03-21T14:55:42.850Z,16.10
2023-03-21T14:58:46.321Z,16.10
2023-03-21T15:01:51.222Z,16.10
2023-03-21T15:04:57.236Z,16.00
2023-03-21T15:08:09.381Z,16.00
2023-03-21T15:11:15.330Z,15.90
2023-03-21T15:14:20.957Z,15.90
2023-03-21T15:17:24.649Z,15.90
2023-03-21T15:20:31.261Z,15.80
2023-03-21T15:23:35.886Z,15.90
2023-03-21T15:26:37.815Z,15.70
2023-03-21T15:29:41.912Z,15.70
2023-03-21T15:32:43.674Z,15.60
2023-03-21T15:36:08.994Z,15.60
2023-03-21T15:39:16.215Z,15.60
2023-03-21T15:42:34.128Z,15.50
2023-03-21T15:45:50.439Z,15.40
2023-03-21T15:49:08.248Z,15.30
2023-03-21T15:52:16.558Z,15.20
2023-03-21T15:55:26.069Z,15.20
2023-03-21T15:58:34.783Z,15.20
2023-03-21T16:01:38.993Z,15.10
2023-03-21T16:04:59.587Z,15.10
2023-03-21T16:08:17.943Z,15.10
2023-03-21T16:11:25.887Z,15.10
2023-03-21T16:14:28.073Z,15.00
2023-03-21T16:17:38.168Z,15.00
2023-03-21T16:20:42.855Z,14.90
2023-03-21T16:23:46.015Z,14.80
2023-03-21T16:26:51.767Z,14.90
2023-03-21T16:29:53.639Z,14.80
2023-03-21T16:32:57.312Z,14.70
2023-03-21T16:36:03.732Z,14.60
2023-03-21T16:39:19.448Z,14.50
2023-03-21T16:42:21.207Z,14.50
2023-03-21T16:45:23.312Z,14.40
2023-03-21T16:48:25.384Z,14.30
2023-03-21T16:51:32.617Z,14.20
2023-03-21T16:54:34.364Z,14.20
2023-03-21T16:57:36.479Z,14.10
2023-03-21T17:00:40.239Z,14.00
2023-03-21T17:03:42.823Z,14.00
2023-03-21T17:06:51.116Z,13.90
2023-03-21T17:09:52.883Z,13.80
2023-03-21T17:12:54.723Z,13.70
2023-03-21T17:15:56.960Z,13.50
2023-03-21T17:19:00.280Z,13.40
2023-03-21T17:22:02.141Z,13.30
2023-03-21T17:25:04.679Z,13.10
2023-03-21T17:28:06.413Z,13.00
2023-03-21T17:31:16.112Z,12.90
2023-03-21T17:34:18.383Z,12.70
2023-03-21T17:37:20.477Z,12.60
2023-03-21T17:40:25.436Z,12.50
2023-03-21T17:43:27.553Z,12.50
2023-03-21T17:46:29.476Z,12.40
2023-03-21T17:49:31.695Z,12.40
2023-03-21T17:52:34.621Z,12.30
2023-03-21T17:55:36.837Z,12.20
2023-03-21T17:58:38.875Z,12.20
2023-03-21T18:01:42.056Z,12.10
2023-03-21T18:04:43.847Z,12.00
2023-03-21T18:11:08.888Z,12.00
2023-03-21T18:14:17.268Z,11.90
2023-03-21T18:17:21.289Z,11.90
2023-03-21T18:20:45.522Z,11.80
2023-03-21T18:23:49.593Z,11.70
2023-03-21T18:26:51.861Z,11.70
2023-03-21T18:30:23.536Z,11.80
2023-03-21T18:33:16.960Z,11.70
2023-03-21T18:36:25.342Z,11.70
2023-03-21T18:39:28.051Z,11.60
2023-03-21T18:42:30.871Z,11.60
2023-03-21T18:45:33.448Z,11.60
2023-03-21T18:48:35.869Z,11.60
2023-03-21T18:51:37.886Z,11.50
2023-03-21T18:54:39.822Z,11.50
2023-03-21T18:57:42.458Z,11.50
2023-03-21T19:00:44.801Z,11.50
2023-03-21T19:04:11.637Z,11.50
2023-03-21T19:07:08.860Z,11.50
2023-03-21T19:10:19.939Z,11.40
2023-03-21T19:13:22.452Z,11.40
2023-03-21T19:16:28.302Z,11.40
2023-03-21T19:19:32.060Z,11.30
2023-03-21T19:22:33.832Z,11.30
2023-03-21T19:25:35.559Z,11.30
2023-03-21T19:28:37.362Z,11.30
2023-03-21T19:31:39.229Z,11.30
2023-03-21T19:34:40.972Z,11.20
2023-03-21T19:37:43.012Z,11.20
2023-03-21T19:40:45.758Z,11.20
2023-03-21T19:43:54.693Z,11.10
2023-03-21T19:46:56.982Z,11.10
2023-03-21T19:53:20.878Z,11.10
2023-03-21T19:56:26.606Z,11.10
2023-03-21T19:59:29.971Z,11.10
2023-03-21T20:02:36.605Z,11.10
2023-03-21T20:05:39.114Z,11.10
2023-03-21T20:12:05.613Z,11.10
2023-03-21T20:15:16.979Z,11.10
2023-03-21T20:18:20.690Z,11.10
2023-03-21T20:21:25.524Z,11.10
2023-03-21T20:24:27.597Z,11.10
2023-03-21T20:27:30.436Z,11.10
2023-03-21T20:30:32.595Z,11.00
2023-03-21T20:33:34.479Z,11.10
2023-03-21T20:36:40.502Z,11.10
2023-03-21T20:39:42.784Z,11.10
2023-03-21T20:42:48.567Z,11.10
2023-03-21T20:45:50.688Z,11.10
2023-03-21T20:48:52.385Z,11.10
2023-03-21T20:55:16.941Z,11.00
2023-03-21T20:58:37.121Z,10.90
2023-03-21T21:01:42.612Z,10.80
2023-03-21T21:05:05.160Z,10.80
2023-03-21T21:08:06.143Z,10.70
2023-03-21T21:11:58.731Z,10.70
2023-03-21T21:14:30.989Z,10.60
2023-03-21T21:18:01.929Z,10.50
2023-03-21T21:20:56.585Z,10.40
2023-03-21T21:23:58.634Z,10.30
2023-03-21T21:27:01.292Z,10.30
2023-03-21T21:30:03.835Z,10.20
2023-03-21T21:33:05.623Z,10.10
2023-03-21T21:36:09.387Z,10.00
2023-03-21T21:39:13.102Z,9.90
2023-03-21T21:42:15.220Z,9.80
2023-03-21T21:45:18.413Z,9.70
2023-03-21T21:48:20.867Z,9.70
2023-03-21T21:51:26.493Z,9.60
2023-03-21T21:54:30.077Z,9.60
2023-03-21T21:57:34.346Z,9.50
2023-03-21T22:00:37.085Z,9.40
2023-03-21T22:03:42.099Z,9.40
2023-03-21T22:06:44.250Z,9.30
2023-03-21T22:09:47.053Z,9.30
2023-03-21T22:12:49.058Z,9.30
2023-03-21T22:15:50.741Z,9.20
2023-03-21T22:18:52.947Z,9.20
2023-03-21T22:21:58.091Z,9.20
2023-03-21T22:24:59.845Z,9.10
2023-03-21T22:28:01.686Z,9.10
2023-03-21T22:31:15.982Z,9.10
2023-03-21T22:34:17.718Z,9.00
2023-03-21T22:37:20.243Z,8.90
2023-03-21T22:40:22.032Z,8.80
2023-03-21T22:43:24.088Z,8.80
2023-03-21T22:46:25.883Z,8.70
2023-03-21T22:49:27.873Z,8.70
2023-03-21T22:52:29.648Z,8.70
2023-03-21T22:55:31.415Z,8.70
2023-03-21T22:58:33.244Z,8.60
2023-03-21T23:01:35.066Z,8.60
2023-03-21T23:04:37.051Z,8.60
2023-03-21T23:07:39.197Z,8.60
2023-03-21T23:10:43.743Z,8.60
2023-03-21T23:13:47.563Z,8.60
2023-03-21T23:16:53.275Z,8.40
2023-03-21T23:19:54.969Z,8.40
2023-03-21T23:22:56.768Z,8.40
2023-03-21T23:25:58.468Z,8.40
2023-03-21T23:29:00.203Z,8.30
2023-03-21T23:32:01.955Z,8.20
2023-03-21T23:35:04.040Z,8.20
2023-03-21T23:38:06.092Z,8.10
2023-03-21T23:41:09.588Z,8.10
2023-03-21T23:44:12.553Z,8.00
2023-03-21T23:47:16.075Z,8.20
2023-03-21T23:50:17.978Z,7.90
2023-03-21T23:53:20.254Z,7.90
2023-03-21T23:56:24.751Z,7.80
2023-03-21T23:59:27.590Z,7.80
